OIIK 
Qazvin Airport
Qazvin, Iran 
ICAOStatus
OIIKOperational
LatitudeLongitude
36° 14' 24" N50° 2' 49" E
36.24010150.047100
Local Time (DST+5)UTC (GMT+4)
04-24-2014 12:37 pm04-24-2014 08:07
Sunrise-SunsetLocalUTC
Begin Civil Twilight05:56 am01:26
Sunrise06:23 am01:53
Sunset07:52 pm15:22
End Civil Twilight08:19 pm15:49

Current Weather

METARObservedFlight Conditions

OIIK 240700Z 27004KT 9999 FEW035TCU FEW040 21/02 Q1015

Thu, Apr 24, 2014 @ 07:00 UTC(Z)

(1 Hour, 7 Minutes ago)

VFR

(Visual Flight Rules)

WindVisibilityCloudsConditions
270° at 4 knots (7 kph)
10 km or more
  • Few at 3,500' AGL
  • Few at 4,000' AGL
  • No significant weather
TemperaturesReadingsPrecipitation
Current Temp21°C (70°F)
Dewpoint2°C (36°F)
Humidity29%
Altimeter29.97"Hg
Sea Level Pressure1015mb
Field Elevation4192.91'
None Recorded

Additional weather within a 92.6km radius of OIIK

Location METAR
OIIP

87km S (126°)

1 hour, 7 minutes ago
VFR VFR    MVFR MVFR    IFR IFR    LIFR LIFR    Unknown Unknown

Previous 24 hour Weather Graphs

  Loading...

CheckWX.com is intended as a tool to help pilots better visualize weather data.   It is not intended as a substitute for an official weather briefing obtained from a Flight Service Station.
CheckWX.com does not meet the FAA requirements for an official pre-flight weather briefing.   Therefore, it's important that pilots still call and obtain an official FSS pre-flight weather briefing.